Time;durP1;ratioP1;P1;durP2;ratioP2;P2;SDS_P1;SDS_P2;PMS_P1;PMS_P2;Temp;Humidity;BMP_temperature;BMP_pressure;BME280_temperature;BME280_humidity;BME280_pressure;Samples;Min_cycle;Max_cycle;Signal;HPM_P1;HPM_P2
2023/01/26 00:00:52;;;;;;;3.40;2.50;;;;;;;2.18;100.00;101195.97;4916088;29;20264;-70
2023/01/26 00:03:18;;;;;;;4.97;3.30;;;;;;;2.16;100.00;101192.63;4915548;29;20302;-69
2023/01/26 00:05:44;;;;;;;4.10;2.50;;;;;;;2.19;100.00;101191.56;4915602;29;20483;-70
2023/01/26 00:08:11;;;;;;;3.40;2.70;;;;;;;2.15;100.00;101184.84;4915561;29;20032;-70
2023/01/26 00:10:40;;;;;;;2.73;2.40;;;;;;;2.16;100.00;101184.72;4915658;29;20088;-70
2023/01/26 00:13:09;;;;;;;3.37;2.47;;;;;;;2.18;100.00;101189.88;4915481;29;20260;-70
2023/01/26 00:15:35;;;;;;;;;;;;;;;2.22;100.00;101193.16;4916012;29;20264;-72
2023/01/26 00:18:01;;;;;;;3.60;2.60;;;;;;;2.12;100.00;101182.41;4915505;29;19982;-70
2023/01/26 00:20:28;;;;;;;3.67;2.60;;;;;;;2.11;100.00;101180.72;4917704;29;20028;-70
2023/01/26 00:22:54;;;;;;;2.57;2.37;;;;;;;2.15;100.00;101180.41;4919125;29;20363;-69
2023/01/26 00:25:19;;;;;;;3.97;2.37;;;;;;;2.14;100.00;101180.50;4919102;29;20360;-70
2023/01/26 00:27:46;;;;;;;3.63;2.97;;;;;;;2.15;100.00;101193.56;4919191;29;20036;-71
2023/01/26 00:30:12;;;;;;;3.57;2.97;;;;;;;2.21;100.00;101194.09;4919316;29;20256;-70
2023/01/26 00:32:37;;;;;;;3.23;2.60;;;;;;;2.18;100.00;101185.47;4919488;29;20383;-71
2023/01/26 00:35:04;;;;;;;3.67;2.93;;;;;;;1.92;100.00;101146.03;4919572;29;20032;-70
2023/01/26 00:37:30;;;;;;;3.20;2.80;;;;;;;2.16;100.00;101182.09;4919464;29;20039;-70
2023/01/26 00:39:56;;;;;;;3.80;2.90;;;;;;;2.23;100.00;101197.47;4919165;29;20260;-72
2023/01/26 00:42:23;;;;;;;3.30;2.83;;;;;;;2.22;100.00;101190.53;4918956;29;20520;-70
2023/01/26 00:44:49;;;;;;;2.83;2.50;;;;;;;2.09;100.00;101175.56;4918871;29;20043;-71
2023/01/26 00:47:16;;;;;;;3.57;2.67;;;;;;;2.24;100.00;101199.16;4919112;29;20263;-69
2023/01/26 00:49:42;;;;;;;2.73;2.50;;;;;;;2.20;100.00;101206.41;4918665;29;20282;-70
2023/01/26 00:52:08;;;;;;;4.57;2.77;;;;;;;2.17;100.00;101199.56;4918821;29;20277;-69
2023/01/26 00:54:33;;;;;;;2.77;2.37;;;;;;;2.19;100.00;101204.72;4918615;29;20268;-70
2023/01/26 00:56:59;;;;;;;3.50;2.40;;;;;;;2.26;100.00;101198.09;4902083;29;20035;-70
2023/01/26 00:59:25;;;;;;;2.40;2.20;;;;;;;2.29;100.00;101203.16;4901766;29;20024;-70
2023/01/26 01:01:51;;;;;;;4.17;2.80;;;;;;;2.24;100.00;101186.00;4901698;29;20031;-70
2023/01/26 01:04:16;;;;;;;4.00;2.77;;;;;;;2.35;100.00;101196.69;4918409;29;20131;-71
2023/01/26 01:06:42;;;;;;;2.50;2.30;;;;;;;2.33;100.00;101203.84;4918366;29;20760;-70
2023/01/26 01:09:08;;;;;;;3.70;2.60;;;;;;;2.32;100.00;101196.91;4918525;29;20532;-70
2023/01/26 01:11:34;;;;;;;4.80;2.77;;;;;;;2.26;100.00;101184.97;4918529;29;20107;-70
2023/01/26 01:14:00;;;;;;;2.90;2.60;;;;;;;2.42;100.00;101198.81;4918644;29;20120;-70
2023/01/26 01:16:27;;;;;;;2.90;2.30;;;;;;;2.46;100.00;101191.56;4918525;29;20339;-70
2023/01/26 01:18:54;;;;;;;3.53;2.70;;;;;;;2.46;100.00;101200.31;4918221;29;20060;-70
2023/01/26 01:21:21;;;;;;;2.53;2.30;;;;;;;2.37;100.00;101189.56;4918217;29;20260;-70
2023/01/26 01:23:47;;;;;;;4.13;3.33;;;;;;;2.37;100.00;101189.56;4917858;29;20304;-70
2023/01/26 01:26:14;;;;;;;3.27;2.90;;;;;;;2.31;100.00;101184.66;4901301;29;20800;-71
2023/01/26 01:28:43;;;;;;;3.53;2.60;;;;;;;2.17;100.00;101175.06;4918198;29;20433;-70
2023/01/26 01:31:11;;;;;;;4.77;2.60;;;;;;;2.26;100.00;101192.84;4918094;29;20264;-70
2023/01/26 01:33:37;;;;;;;4.40;3.03;;;;;;;2.30;100.00;101193.50;4918049;29;20083;-70
2023/01/26 01:36:06;;;;;;;3.07;2.70;;;;;;;2.16;100.00;101168.97;4917856;29;20461;-70
2023/01/26 01:38:31;;;;;;;2.70;2.50;;;;;;;2.33;100.00;101199.44;4918118;29;20054;-70
2023/01/26 01:40:58;;;;;;;2.57;2.37;;;;;;;2.35;100.00;101200.16;4917755;29;20052;-71
2023/01/26 01:43:25;;;;;;;4.37;2.87;;;;;;;2.37;100.00;101192.19;4917922;29;20421;-70
2023/01/26 01:45:51;;;;;;;3.43;2.63;;;;;;;2.33;100.00;101180.19;4917904;29;20272;-70
2023/01/26 01:48:27;;;;;;;2.73;2.43;;;;;;;2.36;100.00;101186.09;4917783;29;20276;-69
2023/01/26 01:50:55;;;;;;;3.57;2.60;;;;;;;2.34;100.00;101176.63;4917784;29;20351;-69
2023/01/26 01:53:27;;;;;;;2.90;2.53;;;;;;;2.34;100.00;101184.50;4917943;29;20268;-70
2023/01/26 01:55:57;;;;;;;2.83;2.57;;;;;;;2.34;100.00;101184.50;4917873;29;20468;-70
2023/01/26 01:58:23;;;;;;;2.67;2.47;;;;;;;2.37;100.00;101184.28;4917700;29;20268;-71
2023/01/26 02:00:49;;;;;;;2.90;2.50;;;;;;;2.38;100.00;101186.81;4917552;29;20264;-69
2023/01/26 02:03:20;;;;;;;5.57;2.80;;;;;;;2.32;100.00;101175.88;4917426;29;22280;-70
2023/01/26 02:06:07;;;;;;;2.37;2.17;;;;;;;2.37;100.00;101181.66;4917664;29;20131;-70
2023/01/26 02:08:37;;;;;;;2.60;2.40;;;;;;;2.38;100.00;101181.56;4917571;29;20812;-71
2023/01/26 02:11:13;;;;;;;2.70;2.50;;;;;;;2.40;100.00;101178.84;4917355;29;20295;-72
2023/01/26 02:13:41;;;;;;;3.40;2.77;;;;;;;2.40;100.00;101181.47;4917154;29;20268;-70
2023/01/26 02:16:06;;;;;;;2.70;2.37;;;;;;;2.37;100.00;101168.53;4917325;29;20265;-70
2023/01/26 02:18:32;;;;;;;2.90;2.53;;;;;;;2.40;100.00;101165.69;4917198;29;20268;-71
2023/01/26 02:21:05;;;;;;;3.67;2.30;;;;;;;2.34;100.00;101169.56;4917270;29;20041;-70
2023/01/26 02:24:02;;;;;;;3.00;2.70;;;;;;;2.35;100.00;101175.66;4917087;29;20068;-70
2023/01/26 02:26:35;;;;;;;3.20;2.67;;;;;;;2.36;100.00;101175.56;4917170;29;20362;-70
2023/01/26 02:29:03;;;;;;;2.97;2.10;;;;;;;2.36;100.00;101172.94;4916837;29;20779;-72
2023/01/26 02:31:30;;;;;;;2.30;2.10;;;;;;;2.36;100.00;101169.47;4917006;29;20264;-70
2023/01/26 02:33:55;;;;;;;3.90;2.50;;;;;;;2.34;100.00;101179.25;4916995;29;20277;-69
2023/01/26 02:36:22;;;;;;;4.57;2.80;;;;;;;2.35;100.00;101181.78;4916879;29;20265;-70
2023/01/26 02:39:25;;;;;;;3.80;2.47;;;;;;;2.30;100.00;101181.19;4916849;29;20072;-68
2023/01/26 02:44:42;;;;;;;4.45;2.65;;;;;;;2.23;100.00;101160.69;4916794;29;20295;-70
2023/01/26 02:47:16;;;;;;;3.17;2.70;;;;;;;2.22;100.00;101174.75;4916953;29;20043;-70
2023/01/26 02:49:49;;;;;;;2.93;2.60;;;;;;;2.23;100.00;101165.94;4916964;29;20032;-70
2023/01/26 02:52:18;;;;;;;3.20;2.63;;;;;;;2.26;100.00;101171.00;4916750;29;20265;-70
2023/01/26 02:57:33;;;;;;;5.23;2.63;;;;;;;2.18;100.00;101151.31;4920004;29;20414;-70
2023/01/26 02:59:58;;;;;;;3.13;2.67;;;;;;;2.11;100.00;101141.31;4928876;29;20350;-71
2023/01/26 03:02:24;;;;;;;6.37;2.80;;;;;;;2.20;100.00;101150.38;4926504;29;20264;-70
2023/01/26 03:04:49;;;;;;;4.70;2.47;;;;;;;2.20;100.00;101145.13;4918989;29;20096;-70
2023/01/26 03:07:15;;;;;;;5.63;2.87;;;;;;;2.16;100.00;101150.56;4918898;29;20032;-70
2023/01/26 03:09:41;;;;;;;3.67;2.30;;;;;;;2.12;100.00;101148.25;4920768;29;20040;-70
2023/01/26 03:12:06;;;;;;;5.90;2.90;;;;;;;2.15;100.00;101151.50;4922134;29;20051;-72
2023/01/26 03:14:32;;;;;;;4.43;2.60;;;;;;;2.18;100.00;101143.44;4920155;29;20100;-70
2023/01/26 03:16:57;;;;;;;3.27;2.60;;;;;;;2.24;100.00;101141.34;4917881;29;20035;-69
2023/01/26 03:27:53;;;;;;;4.40;2.70;;;;;;;2.24;100.00;101118.53;4918178;29;20275;-71
2023/01/26 03:30:22;;;;;;;2.90;2.27;;;;;;;2.19;100.00;101115.38;4887484;29;20291;-71
2023/01/26 03:32:48;;;;;;;2.93;2.40;;;;;;;2.18;100.00;101104.00;4918844;29;20268;-70
2023/01/26 03:35:21;;;;;;;3.50;2.50;;;;;;;2.24;100.00;101117.69;4918689;29;20021;-70
2023/01/26 03:37:53;;;;;;;2.37;2.10;;;;;;;2.26;100.00;101118.44;4916263;29;20468;-70
2023/01/26 03:56:48;;;;;;;3.53;2.53;;;;;;;2.33;100.00;101111.84;4915876;29;20256;-70
2023/01/26 03:59:15;;;;;;;2.27;1.90;;;;;;;2.35;100.00;101112.59;4915769;29;20268;-69
2023/01/26 04:09:58;;;;;;;2.83;2.00;;;;;;;2.32;100.00;101112.78;4898952;29;20740;-72
2023/01/26 04:12:24;;;;;;;2.63;2.07;;;;;;;2.27;100.00;101114.84;4919981;29;20261;-70
2023/01/26 04:23:01;;;;;;;2.13;1.80;;;;;;;2.34;100.00;101105.66;4915431;29;20748;-70
2023/01/26 04:25:27;;;;;;;2.33;2.10;;;;;;;2.33;100.00;101093.44;4915595;29;20359;-71
2023/01/26 04:27:52;;;;;;;2.50;2.17;;;;;;;2.35;100.00;101089.78;4915466;29;20032;-71
2023/01/26 04:30:18;;;;;;;2.40;2.20;;;;;;;2.33;100.00;101093.44;4915578;29;20498;-71
2023/01/26 04:32:45;;;;;;;2.90;2.03;;;;;;;2.35;100.00;101087.16;4915598;29;20040;-70
2023/01/26 04:35:11;;;;;;;2.03;1.83;;;;;;;2.32;100.00;101091.75;4899226;29;20276;-70
2023/01/26 04:37:37;;;;;;;2.03;1.80;;;;;;;2.31;100.00;101090.91;4915494;29;20384;-71
2023/01/26 04:40:07;;;;;;;4.57;2.20;;;;;;;2.36;100.00;101103.75;4919872;29;20791;-72
2023/01/26 04:42:32;;;;;;;2.07;1.60;;;;;;;2.33;100.00;101093.44;4918004;29;20299;-70
2023/01/26 04:44:58;;;;;;;1.93;1.70;;;;;;;2.47;100.00;101117.03;4882489;29;20621;-69
2023/01/26 04:47:23;;;;;;;2.13;1.70;;;;;;;2.52;100.00;101116.72;4897973;29;20028;-70
2023/01/26 04:49:49;;;;;;;1.93;1.83;;;;;;;2.46;100.00;101096.94;4915084;29;20484;-70
2023/01/26 04:52:15;;;;;;;2.07;1.70;;;;;;;2.45;100.00;101097.88;4915493;29;20127;-71
2023/01/26 04:54:41;;;;;;;1.80;1.40;;;;;;;2.47;100.00;101117.03;4915000;29;20501;-69
2023/01/26 04:57:07;;;;;;;3.53;1.87;;;;;;;2.41;100.00;101096.41;4898787;29;20032;-71
2023/01/26 04:59:33;;;;;;;3.27;2.50;;;;;;;2.42;100.00;101105.97;4916208;29;20092;-69
2023/01/26 05:01:58;;;;;;;5.07;3.97;;;;;;;2.46;100.00;101107.44;4899501;29;20284;-70
2023/01/26 05:04:24;;;;;;;3.87;2.63;;;;;;;2.44;100.00;101104.09;4915039;29;20043;-70
2023/01/26 05:06:49;;;;;;;2.97;2.50;;;;;;;2.38;100.00;101101.88;4917977;29;20063;-71
2023/01/26 05:09:15;;;;;;;2.50;2.30;;;;;;;2.39;100.00;101109.66;4918665;29;20060;-71
2023/01/26 05:11:41;;;;;;;2.13;1.93;;;;;;;2.36;100.00;101109.00;4918507;29;20040;-70
2023/01/26 05:14:06;;;;;;;4.63;2.87;;;;;;;2.33;100.00;101104.81;4919261;29;20577;-70
2023/01/26 05:16:32;;;;;;;2.50;2.30;;;;;;;2.36;100.00;101098.50;4918542;29;20036;-70
2023/01/26 05:18:58;;;;;;;2.83;2.63;;;;;;;2.35;100.00;101112.59;4918595;29;20040;-69
2023/01/26 05:21:24;;;;;;;3.40;2.03;;;;;;;2.34;100.00;101111.75;4918470;29;20469;-71
2023/01/26 05:23:50;;;;;;;3.07;2.77;;;;;;;2.41;100.00;101109.53;4918844;29;20295;-68
2023/01/26 05:26:16;;;;;;;3.20;2.67;;;;;;;2.39;100.00;101114.06;4901928;29;20440;-71
2023/01/26 05:28:42;;;;;;;3.50;2.93;;;;;;;2.42;100.00;101125.22;4918732;29;20352;-71
2023/01/26 05:31:07;;;;;;;3.03;2.40;;;;;;;2.46;100.00;101131.94;4885896;29;20358;-70
2023/01/26 05:33:33;;;;;;;4.50;3.33;;;;;;;2.46;100.00;101115.34;4918116;29;20067;-70
2023/01/26 05:36:05;;;;;;;3.20;2.87;;;;;;;2.45;100.00;101127.63;4917994;29;20095;-70
2023/01/26 05:38:31;;;;;;;2.20;2.00;;;;;;;2.37;100.00;101115.97;4918194;29;20024;-70
2023/01/26 05:40:59;;;;;;;2.70;2.50;;;;;;;2.31;100.00;101111.06;4918132;29;20609;-72
2023/01/26 05:43:24;;;;;;;2.73;2.40;;;;;;;2.39;100.00;101125.41;4918024;29;20296;-71
2023/01/26 05:45:50;;;;;;;3.47;2.60;;;;;;;2.41;100.00;101136.69;4918636;29;20291;-71
2023/01/26 05:48:16;;;;;;;3.23;2.60;;;;;;;2.36;100.00;101135.31;4901299;29;20366;-70
2023/01/26 05:50:41;;;;;;;3.57;2.10;;;;;;;2.38;100.00;101134.25;4917861;29;20665;-70
2023/01/26 05:53:07;;;;;;;3.23;2.20;;;;;;;2.41;100.00;101136.69;4918053;29;20464;-70
2023/01/26 05:55:32;;;;;;;3.00;2.17;;;;;;;2.47;100.00;101143.31;4920126;29;20032;-69
2023/01/26 05:57:58;;;;;;;2.77;2.57;;;;;;;2.41;100.00;101138.47;4919441;29;20052;-69
2023/01/26 06:00:24;;;;;;;2.33;2.13;;;;;;;2.42;100.00;101132.25;4900662;29;20024;-70
2023/01/26 06:02:49;;;;;;;4.00;2.43;;;;;;;2.40;100.00;101134.16;4917713;29;20469;-71
2023/01/26 06:05:15;;;;;;;3.33;3.03;;;;;;;2.37;100.00;101124.69;4900559;29;20064;-70
2023/01/26 06:07:40;;;;;;;3.33;2.83;;;;;;;2.41;100.00;101141.09;4917766;29;20484;-72
2023/01/26 06:10:06;;;;;;;3.97;3.57;;;;;;;2.37;100.00;101140.44;4917493;29;20503;-71
2023/01/26 06:12:34;;;;;;;3.80;2.73;;;;;;;2.38;100.00;101149.19;4917652;29;20107;-70
2023/01/26 06:15:06;;;;;;;5.13;3.17;;;;;;;2.38;100.00;101144.75;4917848;29;20265;-69
2023/01/26 06:17:31;;;;;;;3.60;2.60;;;;;;;2.44;100.00;101154.88;4916846;29;20272;-71
2023/01/26 06:19:57;;;;;;;2.53;2.27;;;;;;;2.38;100.00;101152.66;4900451;29;20701;-72
2023/01/26 06:22:23;;;;;;;4.27;2.60;;;;;;;2.33;100.00;101143.38;4917139;29;20039;-70
2023/01/26 06:24:48;;;;;;;3.27;2.87;;;;;;;2.41;100.00;101155.06;4917425;29;20115;-70
2023/01/26 06:27:16;;;;;;;4.73;3.10;;;;;;;2.43;100.00;101153.19;4917798;29;20024;-72
2023/01/26 06:29:42;;;;;;;7.87;3.67;;;;;;;2.41;100.00;101157.72;4918813;29;20035;-72
2023/01/26 06:32:10;;;;;;;4.50;2.83;;;;;;;2.41;100.00;101149.81;4917560;29;20268;-71
2023/01/26 06:34:36;;;;;;;4.68;2.53;;;;;;;2.47;100.00;101165.19;4917048;29;20040;-69
2023/01/26 06:37:01;;;;;;;5.23;2.43;;;;;;;2.42;100.00;101155.91;4917027;29;20047;-70
2023/01/26 06:39:27;;;;;;;6.93;3.20;;;;;;;2.39;100.00;101150.88;4916948;29;20524;-69
2023/01/26 06:41:52;;;;;;;2.90;2.43;;;;;;;2.42;100.00;101150.66;4916584;29;20139;-70
2023/01/26 06:44:18;;;;;;;3.23;2.90;;;;;;;2.41;100.00;101159.50;4916466;29;20052;-70
2023/01/26 06:46:43;;;;;;;3.77;3.00;;;;;;;2.39;100.00;101159.59;4916665;29;20376;-71
2023/01/26 06:49:09;;;;;;;3.00;2.67;;;;;;;2.36;100.00;101157.16;4916890;29;20028;-70
2023/01/26 06:51:53;;;;;;;4.33;2.93;;;;;;;2.42;100.00;101171.69;4899700;29;20473;-71
2023/01/26 06:54:19;;;;;;;3.37;3.07;;;;;;;2.42;100.00;101171.69;4916691;29;20031;-70
2023/01/26 06:56:44;;;;;;;5.17;2.83;;;;;;;2.40;100.00;101163.06;4916515;29;20260;-68
2023/01/26 06:59:10;;;;;;;3.03;2.70;;;;;;;2.44;100.00;101175.06;4916156;29;20142;-69
2023/01/26 07:01:42;;;;;;;3.37;2.80;;;;;;;2.47;100.00;101172.22;4916385;29;20379;-69
2023/01/26 07:04:08;;;;;;;4.90;3.53;;;;;;;2.43;100.00;101162.84;4916310;29;20048;-70
2023/01/26 07:06:33;;;;;;;3.73;2.67;;;;;;;2.44;100.00;101181.16;4899043;29;20619;-71
2023/01/26 07:08:59;;;;;;;3.93;2.63;;;;;;;2.45;100.00;101187.25;4925904;29;20118;-69
2023/01/26 07:11:24;;;;;;;2.83;2.57;;;;;;;2.47;100.00;101180.97;4917999;29;20078;-67
2023/01/26 07:13:50;;;;;;;7.73;2.60;;;;;;;2.44;100.00;101180.31;4934888;29;20030;-72
2023/01/26 07:16:17;;;;;;;3.40;2.27;;;;;;;2.43;100.00;101183.88;4935357;29;20062;-68
2023/01/26 07:18:42;;;;;;;3.17;2.47;;;;;;;2.36;100.00;101167.69;4935099;29;20724;-70
2023/01/26 07:21:14;;;;;;;4.70;2.50;;;;;;;2.38;100.00;101178.09;4935258;29;20035;-70
2023/01/26 07:23:39;;;;;;;6.20;3.13;;;;;;;2.34;100.00;101160.84;4934772;29;20031;-72
2023/01/26 07:26:05;;;;;;;25.90;19.77;;;;;;;2.41;100.00;101178.72;4934939;29;20267;-69
2023/01/26 07:28:33;;;;;;;4.23;2.93;;;;;;;2.38;100.00;101178.09;4934978;29;20035;-69
2023/01/26 07:31:04;;;;;;;4.77;2.50;;;;;;;2.38;100.00;101178.94;4935254;29;20252;-71
2023/01/26 07:33:31;;;;;;;5.03;2.63;;;;;;;2.42;100.00;101176.94;4935922;29;20286;-74
2023/01/26 07:35:57;;;;;;;4.10;2.63;;;;;;;2.42;100.00;101188.31;4935293;29;20628;-79
2023/01/26 07:38:25;;;;;;;4.83;2.50;;;;;;;2.37;100.00;101189.56;4935138;29;20267;-79
2023/01/26 07:40:51;;;;;;;7.00;2.43;;;;;;;2.38;100.00;101199.97;4935084;29;20287;-76
2023/01/26 07:43:17;;;;;;;2.87;2.50;;;;;;;2.34;100.00;101189.75;4935088;29;20290;-73
2023/01/26 07:45:50;;;;;;;4.37;3.10;;;;;;;2.36;100.00;101203.63;4934871;29;20304;-70
2023/01/26 07:48:16;;;;;;;4.07;2.63;;;;;;;2.27;100.00;101191.91;4935089;29;20126;-68
2023/01/26 07:50:42;;;;;;;7.97;2.70;;;;;;;2.08;100.00;101166.00;4934767;29;20358;-71
2023/01/26 07:53:08;;;;;;;4.03;2.70;;;;;;;2.34;100.00;101201.09;4917628;29;20275;-68
2023/01/26 07:55:34;;;;;;;4.30;3.13;;;;;;;2.38;100.00;101205.22;4934606;29;20271;-71
2023/01/26 07:58:00;;;;;;;3.33;2.20;;;;;;;2.35;100.00;101205.44;4934810;29;20035;-71
2023/01/26 08:00:26;;;;;;;2.23;2.00;;;;;;;2.26;100.00;101207.78;4934571;29;20262;-72
2023/01/26 08:02:51;;;;;;;3.13;2.67;;;;;;;2.24;100.00;101205.25;4934443;29;20035;-70
2023/01/26 08:05:17;;;;;;;2.37;2.13;;;;;;;2.30;100.00;101209.25;4934598;29;20035;-70
2023/01/26 08:07:43;;;;;;;4.83;2.50;;;;;;;2.31;100.00;101203.91;4934671;29;20436;-71
2023/01/26 08:10:09;;;;;;;2.53;2.27;;;;;;;2.29;100.00;101202.31;4934606;29;20019;-72
2023/01/26 08:12:36;;;;;;;3.17;2.63;;;;;;;2.31;100.00;101210.94;4917857;29;20379;-74
2023/01/26 08:15:02;;;;;;;4.90;2.60;;;;;;;2.28;100.00;101211.16;4934547;29;20259;-75
2023/01/26 08:17:29;;;;;;;3.03;2.33;;;;;;;2.24;100.00;101210.50;4934819;29;20311;-71
2023/01/26 08:19:55;;;;;;;4.00;2.60;;;;;;;2.20;100.00;101202.94;4934727;29;20263;-72
2023/01/26 08:22:20;;;;;;;2.40;2.20;;;;;;;2.20;100.00;101206.41;4934475;29;20082;-72
2023/01/26 08:24:46;;;;;;;4.40;2.47;;;;;;;2.24;100.00;101214.91;4933744;29;20032;-70
2023/01/26 08:27:16;;;;;;;5.67;2.40;;;;;;;2.14;100.00;101210.25;4918208;29;20083;-72
2023/01/26 08:29:41;;;;;;;5.47;2.20;;;;;;;2.07;100.00;101218.63;4933627;29;20272;-72
2023/01/26 08:32:07;;;;;;;2.97;2.67;;;;;;;2.00;100.00;101225.19;4915635;29;20512;-73
2023/01/26 08:34:33;;;;;;;3.20;2.30;;;;;;;2.02;100.00;101224.16;4921403;29;20024;-73
2023/01/26 08:36:59;;;;;;;2.77;2.53;;;;;;;1.97;100.00;101207.84;4926992;29;20737;-74
2023/01/26 08:39:24;;;;;;;2.83;2.33;;;;;;;2.03;100.00;101218.00;4932650;29;20035;-72
2023/01/26 08:41:55;;;;;;;3.57;2.73;;;;;;;2.06;100.00;101220.44;4913286;29;20083;-70
2023/01/26 08:44:20;;;;;;;3.80;2.40;;;;;;;2.06;100.00;101222.22;4921279;29;20147;-69
2023/01/26 08:46:46;;;;;;;3.93;2.30;;;;;;;2.09;100.00;101216.75;4902190;29;20274;-71
2023/01/26 08:49:11;;;;;;;4.83;2.73;;;;;;;2.08;100.00;101215.91;4901919;29;20028;-71
2023/01/26 08:51:37;;;;;;;3.70;2.70;;;;;;;2.06;100.00;101228.31;4918765;29;20032;-70
2023/01/26 08:54:09;;;;;;;3.90;2.60;;;;;;;2.06;100.00;101222.22;4901950;29;20372;-80
2023/01/26 08:56:42;;;;;;;5.57;3.53;;;;;;;2.05;100.00;101210.84;4937441;29;20035;-79
2023/01/26 08:59:07;;;;;;;6.33;2.83;;;;;;;1.88;100.00;101171.66;4937333;29;20280;-79
2023/01/26 09:01:33;;;;;;;3.90;2.93;;;;;;;2.08;100.00;101210.66;4920628;29;20267;-77
2023/01/26 09:03:59;;;;;;;2.67;2.30;;;;;;;2.13;100.00;101219.09;4917454;29;20031;-74
2023/01/26 09:06:26;;;;;;;4.13;2.40;;;;;;;2.09;100.00;101217.59;4927339;29;20036;-73
2023/01/26 09:08:52;;;;;;;2.77;2.43;;;;;;;2.05;100.00;101210.00;4930286;29;20059;-70
2023/01/26 09:11:17;;;;;;;2.83;2.17;;;;;;;2.09;100.00;101211.50;4936686;29;20272;-72
2023/01/26 09:13:42;;;;;;;3.60;2.93;;;;;;;2.10;100.00;101208.78;4937465;29;20460;-72
2023/01/26 09:16:19;;;;;;;4.47;2.73;;;;;;;2.07;100.00;101219.47;4920254;29;20090;-73
2023/01/26 09:18:44;;;;;;;3.73;2.63;;;;;;;2.06;100.00;101212.53;4937494;29;20039;-74
2023/01/26 09:21:11;;;;;;;3.40;2.80;;;;;;;1.98;100.00;101219.19;4937431;29;20612;-77
2023/01/26 09:23:37;;;;;;;5.00;2.20;;;;;;;1.89;100.00;101199.63;4937720;29;20131;-75
2023/01/26 09:26:03;;;;;;;3.47;2.80;;;;;;;1.90;100.00;101201.31;4920147;29;20768;-77
2023/01/26 09:28:28;;;;;;;4.30;2.40;;;;;;;1.99;100.00;101216.47;4937435;29;20302;-75
2023/01/26 09:30:55;;;;;;;4.13;2.60;;;;;;;1.96;100.00;101218.44;4897515;29;20037;-80
2023/01/26 09:33:21;;;;;;;2.87;2.67;;;;;;;1.98;100.00;101219.19;4901171;29;20049;-77
2023/01/26 09:35:48;;;;;;;5.07;2.40;;;;;;;1.93;100.00;101224.75;4897800;29;20257;-75
2023/01/26 09:38:14;;;;;;;4.80;2.70;;;;;;;1.92;100.00;101209.91;4897054;29;20312;-76
2023/01/26 09:41:10;;;;;;;2.30;2.00;;;;;;;2.00;100.00;101225.19;4896705;29;20746;-78
2023/01/26 09:44:05;;;;;;;3.07;2.20;;;;;;;1.95;100.00;101207.09;4896916;29;20041;-80
2023/01/26 09:46:55;;;;;;;2.80;2.10;;;;;;;1.99;100.00;101211.22;4897032;29;20649;-78
2023/01/26 09:49:43;;;;;;;2.80;2.30;;;;;;;1.98;100.00;101203.44;4900750;29;20260;-76
2023/01/26 09:52:32;;;;;;;2.10;1.95;;;;;;;1.92;100.00;101206.47;4902704;29;20672;-76
2023/01/26 09:54:59;;;;;;;;;;;;;;;1.95;100.00;101204.47;4904586;29;20142;-76
2023/01/26 09:57:47;;;;;;;5.43;2.40;;;;;;;1.88;100.00;101208.44;4898872;29;20083;-77
2023/01/26 10:00:27;;;;;;;2.25;2.05;;;;;;;1.91;100.00;101213.50;4893365;29;20727;-75
2023/01/26 10:03:11;;;;;;;2.10;1.90;;;;;;;1.95;100.00;101211.50;4915700;29;20032;-74
2023/01/26 10:06:12;;;;;;;3.00;2.30;;;;;;;1.91;100.00;101217.91;4918249;29;20455;-72
2023/01/26 10:08:39;;;;;;;6.33;2.47;;;;;;;1.82;100.00;101214.91;4917996;29;20272;-74
2023/01/26 10:11:31;;;;;;;2.93;2.60;;;;;;;1.70;100.00;101199.06;4900842;29;20295;-74
2023/01/26 10:14:06;;;;;;;2.57;2.37;;;;;;;1.77;100.00;101216.16;4917368;29;20299;-75
2023/01/26 10:16:33;;;;;;;2.97;2.63;;;;;;;1.82;100.00;101219.31;4917592;29;20257;-74
2023/01/26 10:19:01;;;;;;;3.23;2.40;;;;;;;1.83;100.00;101205.25;4917407;29;20287;-76
2023/01/26 10:21:42;;;;;;;2.60;2.40;;;;;;;1.85;100.00;101206.00;4916432;29;20761;-78
2023/01/26 10:24:20;;;;;;;3.97;2.30;;;;;;;1.70;100.00;101188.56;4899727;29;20067;-75
2023/01/26 10:26:57;;;;;;;3.40;1.93;;;;;;;1.81;100.00;101215.00;4900207;29;20272;-76
2023/01/26 10:29:22;;;;;;;4.23;3.00;;;;;;;1.83;100.00;101206.09;4900871;29;20308;-75
2023/01/26 10:31:48;;;;;;;2.50;2.13;;;;;;;1.82;100.00;101214.06;4917529;29;20356;-73
2023/01/26 10:34:17;;;;;;;2.73;2.53;;;;;;;1.87;100.00;101206.75;4917358;29;20108;-74
2023/01/26 10:36:45;;;;;;;4.87;2.30;;;;;;;1.83;100.00;101203.47;4917157;29;20036;-74
2023/01/26 10:39:14;;;;;;;2.90;2.30;;;;;;;1.86;100.00;101194.56;4917050;29;20276;-75
2023/01/26 10:42:16;;;;;;;4.97;2.33;;;;;;;1.95;100.00;101203.63;4917463;29;20303;-74
2023/01/26 10:44:42;;;;;;;2.20;2.00;;;;;;;1.90;100.00;101200.47;4910260;29;20138;-76
2023/01/26 10:47:16;;;;;;;2.63;2.00;;;;;;;1.90;100.00;101195.19;4900242;29;20814;-71
2023/01/26 10:49:42;;;;;;;5.03;2.53;;;;;;;1.97;100.00;101205.22;4915609;29;20062;-72
2023/01/26 10:52:21;;;;;;;2.60;2.40;;;;;;;1.92;100.00;101199.41;4916602;29;20299;-72
2023/01/26 10:54:50;;;;;;;3.17;2.27;;;;;;;1.91;100.00;101202.97;4899574;29;20621;-72
2023/01/26 10:57:36;;;;;;;2.80;2.55;;;;;;;1.94;100.00;101191.44;4917029;29;20256;-70
2023/01/26 11:00:21;;;;;;;2.53;2.33;;;;;;;1.89;100.00;101196.16;4917164;29;20040;-72
2023/01/26 11:02:52;;;;;;;5.30;2.70;;;;;;;1.83;100.00;101181.63;4916697;29;20296;-71
2023/01/26 11:05:20;;;;;;;2.60;2.07;;;;;;;1.91;100.00;101197.72;4916600;29;20303;-78
2023/01/26 11:07:48;;;;;;;3.83;2.35;;;;;;;1.95;100.00;101187.88;4917002;29;20378;-71
2023/01/26 11:10:19;;;;;;;2.38;2.13;;;;;;;1.95;100.00;101188.72;4916824;29;20123;-72
2023/01/26 11:12:44;;;;;;;3.77;2.10;;;;;;;1.89;100.00;101188.25;4916476;29;20083;-73
2023/01/26 11:15:19;;;;;;;5.70;2.60;;;;;;;1.97;100.00;101192.09;4919502;29;20653;-72
2023/01/26 11:18:08;;;;;;;3.00;2.70;;;;;;;1.96;100.00;101190.41;4918321;29;20060;-71
2023/01/26 11:20:39;;;;;;;3.83;2.70;;;;;;;1.97;100.00;101184.22;4918166;29;20804;-72
2023/01/26 11:23:14;;;;;;;5.20;2.50;;;;;;;1.89;100.00;101199.63;4917056;29;20260;-71
2023/01/26 11:26:22;;;;;;;6.00;2.20;;;;;;;1.90;100.00;101201.31;4917384;29;20299;-72
2023/01/26 11:29:12;;;;;;;3.38;3.08;;;;;;;1.83;100.00;101190.34;4918272;29;20332;-71
2023/01/26 11:31:46;;;;;;;2.07;1.87;;;;;;;1.90;100.00;101203.94;4917017;29;20039;-75
2023/01/26 11:34:30;;;;;;;6.33;2.40;;;;;;;1.93;100.00;101195.00;4916220;29;20260;-75
2023/01/26 11:37:32;;;;;;;2.53;2.33;;;;;;;1.77;100.00;101171.50;4901248;29;20275;-77
2023/01/26 11:43:57;;;;;;;3.77;3.00;;;;;;;1.93;100.00;101187.97;4916681;29;20425;-76
2023/01/26 11:46:51;;;;;;;4.27;3.30;;;;;;;1.94;100.00;101183.56;4917647;29;20287;-74
2023/01/26 11:49:45;;;;;;;4.47;2.20;;;;;;;1.97;100.00;101180.72;4915987;29;20291;-75
2023/01/26 11:52:29;;;;;;;4.17;3.53;;;;;;;1.99;100.00;101174.44;4916278;29;20263;-75
2023/01/26 11:55:19;;;;;;;3.60;2.70;;;;;;;2.04;100.00;101167.13;4930830;29;20616;-75
2023/01/26 11:58:13;;;;;;;3.57;2.60;;;;;;;2.10;100.00;101165.91;4935393;29;20272;-75
2023/01/26 12:00:43;;;;;;;4.37;2.97;;;;;;;2.10;100.00;101166.75;4921223;29;20684;-73
2023/01/26 12:03:24;;;;;;;5.90;2.63;;;;;;;2.04;100.00;101171.53;4927538;29;20274;-76
2023/01/26 12:05:54;;;;;;;3.27;2.70;;;;;;;2.02;100.00;101176.88;4935087;29;20773;-76
2023/01/26 12:08:39;;;;;;;4.23;2.97;;;;;;;2.03;100.00;101177.75;4935055;29;20327;-77
2023/01/26 12:11:28;;;;;;;3.80;2.80;;;;;;;2.05;100.00;101178.50;4917303;29;20289;-75
2023/01/26 12:14:19;;;;;;;4.57;2.80;;;;;;;2.08;100.00;101194.06;4918514;29;20267;-72
2023/01/26 12:17:09;;;;;;;2.73;2.33;;;;;;;2.03;100.00;101196.13;4937782;29;20423;-77
2023/01/26 12:19:56;;;;;;;2.80;2.37;;;;;;;1.86;100.00;101173.53;4939049;29;20256;-75
2023/01/26 12:22:29;;;;;;;3.10;2.20;;;;;;;1.93;100.00;101187.13;4939373;29;20358;-78
2023/01/26 12:25:32;;;;;;;3.57;2.70;;;;;;;2.05;100.00;101215.28;4932310;29;20323;-74
2023/01/26 12:28:27;;;;;;;5.37;2.50;;;;;;;2.05;100.00;101215.28;4959290;29;20279;-76
2023/01/26 12:31:08;;;;;;;2.50;2.30;;;;;;;1.93;100.00;101210.75;4953772;29;20271;-78